ETIK 192356Z AUTO M 9999 M 17/15 A3021 RMK AO2 SLP219 6//// T01680151 10271 20162 50004 ETIK 192256Z AUTO M 9999 M 16/16 A3021 RMK AO2 SLP220 T01640156 402980125 ETIK 192156Z 19001KT 9999 BKN050 16/16 A3022 RMK SLP226 WND DATA ESTMD ALSTG DATA ESTMD ETIK 192056Z 13009KT 9999 BKN050 17/16 A3021 RMK SLP220 WND DATA ESTMD ALSTG DATA ESTMD ETIK 192040Z AUTO M 9999 M 17/16 A3021 RMK AO2 LTG DSNT SE-S RAE1958RAB02E05DZB05E06RAB06E24DZB24E27 TSE1958TSB02E03TSB04E15TSB16E17TSB25E40 SLP221 $ ETIK 192027Z AUTO M 9999 TS M 17/16 A3020 RMK AO2 RAE1958RAB02E05DZB05E06RAB06E24DZB24E27 TSE1958TSB02E03TSB04E15TSB16E17TSB25 SLP219 $ ETIK 192025Z AUTO M 9999 TS -DZ M 17/16 A3021 RMK AO2 RAE1958RAB02E05DZB05E06RAB06E24DZB24 TSE1958TSB02E03TSB04E15TSB16E17TSB25 SLP222 $ ETIK 192017Z AUTO M 5000 VCTS -RA M 17/16 A3021 RMK AO2 RAE1958RAB02E05DZB05E06RAB06 TSE1958TSB02E03TSB04E15TSB16E17 SLP222 $ ETIK 192016Z AUTO M 5000 -TSRA M 17/16 A3022 RMK AO2 RAE1958RAB02E05DZB05E06RAB06 TSE1958TSB02E03TSB04E15TSB16 SLP226 $ ETIK 192015Z AUTO M 6000 +RA M 17/16 A3023 RMK AO2 RAE1958RAB02E05DZB05E06RAB06 TSE1958TSB02E03TSB04E15 PRESFR SLP229 $ ETIK 192004Z AUTO M 9999 -TSRA M 17/15 A3025 RMK AO2 RAE1958RAB02 TSE1958TSB02E03TSB04 SLP236 $ ETIK 192003Z AUTO M 9000 HZ M 18/15 A3025 RMK AO2 LTG DSNT NE-W RAE1958RAB02 TSE1958TSB02E03 SLP236 $ ETIK 192002Z AUTO 09005KT 5000 -TSRA BKN030 18/15 A3025 RMK AO2 RAE1958RAB02 TSE1952TSB1953E1958TSB02 SLP236 $ ETIK 191958Z AUTO M 8000 HZ M 18/15 A3026 RMK AO2 LTG DSNT NE-W RAE58 TSE50TSB51E52TSB53E58 SLP240 $ ETIK 191956Z AUTO M 8000 -TSRA M 18/15 A3025 RMK AO2 RAE1857RAB20E50RAB51 TSE1856TSB06E10TSB17E29TSB31E50TSB51E52TSB53 SLP236 P//// T01780145 ETIK 191953Z AUTO M 8000 -TSRA M 18/14 A3025 RMK AO2 RAB20E50RAB51 TSB06E10TSB17E29TSB31E50TSB51E52TSB53 SLP236 $ ETIK 191952Z AUTO M 8000 HZ M 18/14 A3025 RMK AO2 LTG DSNT NE AND SE-SW RAB20E50RAB51 TSB06E10TSB17E29TSB31E50TSB51E52 SLP236 $ ETIK 191951Z AUTO M 6000 -TSRA M 18/14 A3025 RMK AO2 RAB20E50RAB51 TSB06E10TSB17E29TSB31E50TSB51 SLP236 $ ETIK 191950Z AUTO M 6000 HZ M 18/14 A3025 RMK AO2 LTG DSNT NE AND SE-SW RAB20E50 TSB06E10TSB17E29TSB31E50 PRESFR SLP236 $ ETIK 191931Z AUTO 02003KT 8000 -TSRA BKN035 18/14 A3027 RMK AO2 RAB20 TSB06E10TSB17E29TSB31 SLP243 $ ETIK 191929Z AUTO M 9999 M 18/14 A3026 RMK AO2 LTG DSNT NE-SW AND NW RAB20 TSB06E10TSB17E29 PRESRR SLP240 $ ETIK 191920Z AUTO 23006KT 9000 -TSRA BKN035 19/14 A3023 RMK AO2 RAB20 TSB06E10TSB17 PRESRR SLP229 $ ETIK 191917Z AUTO M 9999 TS M 20/13 A3021 RMK AO2 TSB06E10TSB17 PRESRR SLP222 $ ETIK 191910Z AUTO 19012KT 8000 -TSRA BKN035 20/13 A3019 RMK AO2 LTG DSNT N-NE AND S-W TSB06E10 SLP216 RVRNO $ ETIK 191906Z AUTO 26002KT 9999 TS BKN040 21/ A3018 RMK AO2 TSB06 SLP211 $ ETIK 191856Z AUTO 35014KT 9000 -TSRA BKN040 21/14 A3017 RMK AO2 PK WND 01032/48 LTG DSNT NE AND SE AND SW RAB50 TSB1845 PRESRR SLP207 T02130137 $ ETIK 191756Z AUTO M 9999 M 27/14 A3011 RMK AO2 LTG DSNT W SLP184 T02720143 10298 20272 ETIK 191656Z 25002KT 9999 SCT170 28/ A3012 RMK AO2A SLP189 $ ETIK 191556Z 22007KT 9999 SCT180 30/14 A3011 RMK AO2A SLP186 T02950137 ETIK 191456Z 22007KT 9999 SCT180 30/14 A3011 RMK AO2A SLP186 T02950137 57015 ETIK 191356Z 22003KT 9999 SCT180 29/13 A3014 RMK AO2A SLP196 T02930131 ETIK 191256Z 25005KT 9999 SCT170 28/13 A3015 RMK AO2A SLP198 T02830126 ETIK 191156Z 00000KT 9999 FEW200 28/12 A3016 RMK AO2A SLP202 T02760124 10276 20168 57010 ETIK 191056Z AUTO 21005KT 9999 FEW210 26/12 A3017 RMK AO2 SLP205 T02620119 $ ETIK 190956Z AUTO 16004KT 9999 CLR 24/11 A3018 RMK AO2 SLP208 T02440110 $ ETIK 190856Z AUTO 12005KT 9999 CLR 23/10 A3019 RMK AO2 SLP214 T02270095 58005 $ ETIK 190756Z 14003KT 9999 FEW250 21/09 A3020 RMK AO2A SLP218 T02070093 $ ETIK 190656Z 12003KT 9999 FEW250 19/08 A3021 RMK AO2A SLP221 T01850079 $ ETIK 190556Z AUTO 11003KT 9999 CLR 17/08 A3021 RMK AO2 SLP220 T01670076 10167 20125 53002 $ ETIK 190456Z AUTO 08006KT 9999 CLR 14/07 A3020 RMK AO2 SLP218 T01420065 ETIK 190356Z AUTO 06004KT 9999 CLR 13/05 A3020 RMK AO2 SLP218 T01340053 ETIK 190256Z AUTO 05005KT 9999 CLR 13/06 A3020 RMK AO2 SLP218 T01280062 55004 ETIK 190156Z AUTO 06005KT 9999 CLR 13/07 A3020 RMK AO2 SLP219 T01320074 ETIK 190056Z AUTO 07004KT 9999 CLR 16/08 A3021 RMK AO2 SLP220 T01550082 ETIK 182356Z AUTO 07003KT 9999 CLR 17/09 A3022 RMK AO2 SLP223 T01650085 10241 20154 58001 ETIK 182256Z AUTO 11003KT 9999 CLR 18/09 A3022 RMK AO2 SLP223 T01790087 402670111 ETIK 182156Z AUTO 13006KT 9999 CLR 20/09 A3022 RMK AO2 SLP222 T01950091 ETIK 182056Z AUTO 10003KT 9999 CLR 16/11 A3022 RMK AO2 SLP226 T01630112 50004 ETIK 181956Z AUTO 08003KT 9999 CLR 18/12 A3022 RMK AO2 SLP225 T01790117 ETIK 181856Z AUTO 14003KT 9999 CLR 21/13 A3021 RMK AO2 SLP221 T02080125 ETIK 181756Z AUTO 10005KT 9999 CLR 24/12 A3021 RMK AO2 SLP221 T02420122 10267 20242 56002 ETIK 181656Z AUTO 09005KT 9999 CLR 25/12 A3021 RMK AO2 SLP221 T02510120 ETIK 181556Z AUTO 00000KT 9999 CLR 27/10 A3021 RMK AO2 SLP220 T02670104 ETIK 181456Z AUTO 07004KT 9999 CLR 26/11 A3021 RMK AO2 SLP221 T02600113 57010 ETIK 181356Z AUTO 07003KT 9999 CLR 25/11 A3022 RMK AO2 SLP226 T02480114

METAR Messwerte "ILLESHEIM (USA-A" ETIK

Zurück zur Übersicht

Ortsname
Ländercode / m ü. NN
Zeit Temperatur Taupunkt Rel.
Luftfeuchte
Luftdruck:
Altimeter
NN
Station
Wind in Beaufort
(Knoten)
Sichtweite
(Meter)
Wolken
(Meter über Grund)
Wettererscheinung
ILLESHEIM (USA-A
DE 326
Fr 20.05. 01:56171588 %1023
1023
984
 >= 10000  
ILLESHEIM (USA-A
DE 326
Fr 20.05. 00:561616100 %1023
1023
984
 >= 10000  
ILLESHEIM (USA-A
DE 326
Do 19.05. 23:561616100 %1023
1023
984
S 1 (1)>= 10000Stark bewölkt (1500) 
ILLESHEIM (USA-A
DE 326
Do 19.05. 22:56171694 %1023
1023
984
SO 3 (9)>= 10000Stark bewölkt (1500) 
ILLESHEIM (USA-A
DE 326
Do 19.05. 22:40171694 %1023
1023
984
 >= 10000  
ILLESHEIM (USA-A
DE 326
Do 19.05. 22:27171694 %1023
1023
984
 >= 10000  
ILLESHEIM (USA-A
DE 326
Do 19.05. 22:25171694 %1023
1023
984
 >= 10000 Nieselregen (schwach)
ILLESHEIM (USA-A
DE 326
Do 19.05. 22:17171694 %1023
1023
984
 5000 Regen (schwach)
ILLESHEIM (USA-A
DE 326
Do 19.05. 22:16171694 %1023
1023
984
 5000 Gewitter mit Regen (schwach)
ILLESHEIM (USA-A
DE 326
Do 19.05. 22:15171694 %1024
1024
985
 6000 Regen (stark)
ILLESHEIM (USA-A
DE 326
Do 19.05. 22:04171588 %1024
1024
985
 >= 10000 Gewitter mit Regen (schwach)
ILLESHEIM (USA-A
DE 326
Do 19.05. 22:03181583 %1024
1024
985
 9000 Dunst
ILLESHEIM (USA-A
DE 326
Do 19.05. 22:02181583 %1024
1024
985
O 2 (5)5000Stark bewölkt (910)Gewitter mit Regen (schwach)
ILLESHEIM (USA-A
DE 326
Do 19.05. 21:58181583 %1025
1025
986
 8000 Dunst
ILLESHEIM (USA-A
DE 326
Do 19.05. 21:56181583 %1024
1024
985
 8000 Gewitter mit Regen (schwach)
ILLESHEIM (USA-A
DE 326
Do 19.05. 21:53181477 %1024
1024
985
 8000 Gewitter mit Regen (schwach)
ILLESHEIM (USA-A
DE 326
Do 19.05. 21:52181477 %1024
1024
985
 8000 Dunst
ILLESHEIM (USA-A
DE 326
Do 19.05. 21:51181477 %1024
1024
985
 6000 Gewitter mit Regen (schwach)
ILLESHEIM (USA-A
DE 326
Do 19.05. 21:50181477 %1024
1024
985
 6000 Dunst
ILLESHEIM (USA-A
DE 326
Do 19.05. 21:31181477 %1025
1025
986
NNO 2 (3)8000Stark bewölkt (1100)Gewitter mit Regen (schwach)
ILLESHEIM (USA-A
DE 326
Do 19.05. 21:29181477 %1025
1025
986
 >= 10000  
ILLESHEIM (USA-A
DE 326
Do 19.05. 21:20191473 %1024
1024
985
SW 2 (6)9000Stark bewölkt (1100)Gewitter mit Regen (schwach)
ILLESHEIM (USA-A
DE 326
Do 19.05. 21:17201364 %1023
1022
984
 >= 10000  
ILLESHEIM (USA-A
DE 326
Do 19.05. 21:10201364 %1022
1021
983
S 4 (12)8000Stark bewölkt (1100)Gewitter mit Regen (schwach)
ILLESHEIM (USA-A
DE 326
Do 19.05. 21:06    %1022
 
 
W 1 (2)>= 10000Stark bewölkt (1200) 
ILLESHEIM (USA-A
DE 326
Do 19.05. 20:56211464 %1022
1021
983
N 4 (14)9000Stark bewölkt (1200)Gewitter mit Regen (schwach)
ILLESHEIM (USA-A
DE 326
Do 19.05. 19:56271445 %1020
1018
981
 >= 10000  
ILLESHEIM (USA-A
DE 326
Do 19.05. 18:56    %1020
 
 
WSW 1 (2)>= 10000Wolkig (5200) 
ILLESHEIM (USA-A
DE 326
Do 19.05. 17:56301438 %1020
1018
981
SW 3 (7)>= 10000Wolkig (5500) 
ILLESHEIM (USA-A
DE 326
Do 19.05. 16:56301438 %1020
1018
981
SW 3 (7)>= 10000Wolkig (5500) 
ILLESHEIM (USA-A
DE 326
Do 19.05. 15:56291337 %1021
1019
982
SW 2 (3)>= 10000Wolkig (5500) 
ILLESHEIM (USA-A
DE 326
Do 19.05. 14:56281340 %1021
1019
982
WSW 2 (5)>= 10000Wolkig (5200) 
ILLESHEIM (USA-A
DE 326
Do 19.05. 13:56281237 %1021
1019
982
Windstill>= 10000Leicht bewölkt (6100) 
ILLESHEIM (USA-A
DE 326
Do 19.05. 12:56261242 %1022
1021
983
SSW 2 (5)>= 10000Leicht bewölkt (6400) 
ILLESHEIM (USA-A
DE 326
Do 19.05. 11:56241144 %1022
1021
983
SSO 2 (4)>= 10000  
ILLESHEIM (USA-A
DE 326
Do 19.05. 10:56231044 %1022
1021
983
OSO 2 (5)>= 10000  
ILLESHEIM (USA-A
DE 326
Do 19.05. 09:5621946 %1023
1022
984
SO 2 (3)>= 10000Leicht bewölkt (7600) 
ILLESHEIM (USA-A
DE 326
Do 19.05. 08:5619849 %1023
1023
984
OSO 2 (3)>= 10000Leicht bewölkt (7600) 
ILLESHEIM (USA-A
DE 326
Do 19.05. 07:5617855 %1023
1023
984
OSO 2 (3)>= 10000  
ILLESHEIM (USA-A
DE 326
Do 19.05. 06:5614763 %1023
1023
984
O 2 (6)>= 10000  
ILLESHEIM (USA-A
DE 326
Do 19.05. 05:5613558 %1023
1023
984
ONO 2 (4)>= 10000  
ILLESHEIM (USA-A
DE 326
Do 19.05. 04:5613662 %1023
1023
984
NO 2 (5)>= 10000  
ILLESHEIM (USA-A
DE 326
Do 19.05. 03:5613767 %1023
1023
984
ONO 2 (5)>= 10000  
ILLESHEIM (USA-A
DE 326
Do 19.05. 02:5616859 %1023
1023
984
ONO 2 (4)>= 10000  
ILLESHEIM (USA-A
DE 326
Do 19.05. 01:5617959 %1023
1023
984
ONO 2 (3)>= 10000  
ILLESHEIM (USA-A
DE 326
Do 19.05. 00:5618956 %1023
1023
984
OSO 2 (3)>= 10000  
ILLESHEIM (USA-A
DE 326
Mi 18.05. 23:5620949 %1023
1022
984
SO 2 (6)>= 10000  
ILLESHEIM (USA-A
DE 326
Mi 18.05. 22:56161172 %1023
1023
984
O 2 (3)>= 10000  
ILLESHEIM (USA-A
DE 326
Mi 18.05. 21:56181268 %1023
1023
984
O 2 (3)>= 10000  
ILLESHEIM (USA-A
DE 326
Mi 18.05. 20:56211360 %1023
1022
984
SO 2 (3)>= 10000  
ILLESHEIM (USA-A
DE 326
Mi 18.05. 19:56241247 %1023
1022
984
O 2 (5)>= 10000  
ILLESHEIM (USA-A
DE 326
Mi 18.05. 18:56251244 %1023
1022
984
O 2 (5)>= 10000  
ILLESHEIM (USA-A
DE 326
Mi 18.05. 17:56271034 %1023
1021
984
Windstill>= 10000  
ILLESHEIM (USA-A
DE 326
Mi 18.05. 16:56261139 %1023
1022
984
ONO 2 (4)>= 10000  
ILLESHEIM (USA-A
DE 326
Mi 18.05. 15:56251141 %1023
1022
984
ONO 2 (3)>= 10000  

Altimeter: Einstellung am Altimeter (Höhenmesser), die Höhe 0 muss auf diesen Luftdruckwert zeigen, damit das Gerät die Stationshöhe richtig anzeigt.

NN: Luftdruck reduziert auf "Normal Null", auf Meereshöhe, dieser von der Temperatur abhängige Wert wird bisweilen unkorrekt einfach als "Luftdruck" bezeichnet. Eigentlich nur eine fiktive Größe, die es erlaubt, Stationen auf unterschiedlichen Höhen miteinander zu vergleichen.

Station: Realer Luftdruck an der Station.